Time;durP1;ratioP1;P1;durP2;ratioP2;P2;SDS_P1;SDS_P2;PMS_P1;PMS_P2;Temp;Humidity;BMP_temperature;BMP_pressure;BME280_temperature;BME280_humidity;BME280_pressure;Samples;Min_cycle;Max_cycle;Signal;HPM_P1;HPM_P2
2021/05/28 00:02:16;;;;;;;2.22;1.35;;;;;14.20;102192.00;;;;5087685;28;20190;-80
2021/05/28 00:04:42;;;;;;;2.05;1.23;;;;;14.20;102208.00;;;;5091582;28;20229;-80
2021/05/28 00:07:09;;;;;;;1.83;1.20;;;;;14.20;102206.00;;;;5086303;28;20199;-80
2021/05/28 00:09:37;;;;;;;2.17;1.33;;;;;14.10;102207.00;;;;5077305;28;20242;-81
2021/05/28 00:12:04;;;;;;;1.77;1.25;;;;;14.10;102208.00;;;;5073938;28;20202;-80
2021/05/28 00:14:31;;;;;;;3.03;1.67;;;;;14.10;102206.00;;;;5090168;28;20813;-80
2021/05/28 00:16:58;;;;;;;3.30;1.55;;;;;14.10;102215.00;;;;5071852;28;20191;-80
2021/05/28 00:19:24;;;;;;;1.95;1.35;;;;;14.10;102218.00;;;;5071654;28;20202;-80
2021/05/28 00:21:51;;;;;;;2.22;1.45;;;;;14.00;102216.00;;;;5071402;28;20203;-80
2021/05/28 00:24:19;;;;;;;2.38;1.77;;;;;14.00;102216.00;;;;5070337;28;20215;-80
2021/05/28 00:26:47;;;;;;;3.03;1.55;;;;;14.00;102214.00;;;;5071299;28;20696;-80
2021/05/28 00:29:14;;;;;;;1.58;1.25;;;;;14.00;102205.00;;;;5074279;28;20202;-80
2021/05/28 00:31:41;;;;;;;4.25;1.55;;;;;14.00;102203.00;;;;5089515;28;20618;-80
2021/05/28 00:34:07;;;;;;;3.47;1.42;;;;;13.90;102201.00;;;;5091481;28;20198;-80
2021/05/28 00:36:34;;;;;;;1.92;1.35;;;;;13.90;102200.00;;;;5089919;28;21019;-80
2021/05/28 00:39:01;;;;;;;2.42;1.30;;;;;13.90;102203.00;;;;5089553;28;20210;-80
2021/05/28 00:41:28;;;;;;;2.58;1.45;;;;;13.90;102202.00;;;;5090476;28;20206;-80
2021/05/28 00:43:55;;;;;;;1.48;1.13;;;;;13.80;102196.00;;;;5091098;28;20225;-80
2021/05/28 00:46:26;;;;;;;4.20;1.75;;;;;13.80;102203.00;;;;5088148;28;20224;-80
2021/05/28 00:48:53;;;;;;;2.33;1.60;;;;;13.80;102212.00;;;;5090784;28;20255;-80
2021/05/28 00:51:20;;;;;;;2.58;1.75;;;;;13.80;102205.00;;;;5089923;28;20205;-80
2021/05/28 00:53:47;;;;;;;2.72;1.70;;;;;13.70;102209.00;;;;5090835;28;20298;-81
2021/05/28 00:56:15;;;;;;;2.47;1.80;;;;;13.70;102202.00;;;;5090436;28;20202;-80
2021/05/28 00:58:42;;;;;;;2.15;1.50;;;;;13.70;102209.00;;;;5083275;28;20653;-80
2021/05/28 01:01:10;;;;;;;3.72;1.65;;;;;13.70;102208.00;;;;5083606;28;20671;-79
2021/05/28 01:03:37;;;;;;;4.13;1.90;;;;;13.70;102214.00;;;;5078812;28;20271;-80
2021/05/28 01:06:04;;;;;;;2.67;2.08;;;;;13.70;102212.00;;;;5090439;28;20690;-80
2021/05/28 01:08:31;;;;;;;3.63;1.83;;;;;13.70;102213.00;;;;5089704;28;20202;-81
2021/05/28 01:10:58;;;;;;;3.15;1.90;;;;;13.60;102214.00;;;;5090700;28;20202;-80
2021/05/28 01:13:24;;;;;;;2.47;1.55;;;;;13.60;102210.00;;;;5075831;28;20191;-80
2021/05/28 01:15:51;;;;;;;3.42;1.70;;;;;13.60;102207.00;;;;5082058;28;20648;-81
2021/05/28 01:18:19;;;;;;;3.50;2.08;;;;;13.60;102208.00;;;;5090689;28;20202;-80
2021/05/28 01:20:45;;;;;;;5.78;1.85;;;;;13.60;102212.00;;;;5089813;28;20232;-81
2021/05/28 01:23:13;;;;;;;3.08;1.85;;;;;13.60;102214.00;;;;5081338;28;20222;-80
2021/05/28 01:25:40;;;;;;;1.42;1.17;;;;;13.50;102214.00;;;;5087903;28;20867;-80
2021/05/28 01:28:07;;;;;;;2.22;1.40;;;;;13.50;102209.00;;;;5073950;28;20199;-80
2021/05/28 01:30:34;;;;;;;2.70;1.65;;;;;13.50;102215.00;;;;5077824;28;20201;-80
2021/05/28 01:33:01;;;;;;;4.25;1.58;;;;;13.50;102213.00;;;;5083359;28;20217;-80
2021/05/28 01:35:28;;;;;;;2.92;1.98;;;;;13.50;102217.00;;;;5069175;28;20249;-80
2021/05/28 01:37:55;;;;;;;2.95;1.92;;;;;13.50;102202.00;;;;5070085;28;20702;-80
2021/05/28 01:40:23;;;;;;;4.40;2.10;;;;;13.50;102207.00;;;;5069147;28;20199;-80
2021/05/28 01:42:50;;;;;;;2.90;1.65;;;;;13.40;102210.00;;;;5069413;28;20242;-80
2021/05/28 01:45:17;;;;;;;3.08;1.85;;;;;13.40;102208.00;;;;5074628;28;20194;-80
2021/05/28 01:47:44;;;;;;;2.38;1.77;;;;;13.40;102212.00;;;;5089870;28;20203;-80
2021/05/28 01:50:13;;;;;;;1.95;1.55;;;;;13.40;102210.00;;;;5089658;28;20209;-80
2021/05/28 01:52:40;;;;;;;2.22;1.45;;;;;13.40;102213.00;;;;5078143;28;20260;-80
2021/05/28 01:55:09;;;;;;;2.03;1.42;;;;;13.30;102211.00;;;;5086872;28;20686;-80
2021/05/28 01:57:37;;;;;;;3.85;2.00;;;;;13.30;102213.00;;;;5084616;28;20198;-80
2021/05/28 02:00:06;;;;;;;2.75;1.75;;;;;13.30;102208.00;;;;5073413;28;20668;-80
2021/05/28 02:02:33;;;;;;;1.88;1.48;;;;;13.20;102205.00;;;;5089928;28;20256;-80
2021/05/28 02:05:00;;;;;;;2.00;1.63;;;;;13.20;102210.00;;;;5069317;28;20195;-80
2021/05/28 02:07:26;;;;;;;2.05;1.38;;;;;13.20;102212.00;;;;5068270;28;20202;-80
2021/05/28 02:09:53;;;;;;;3.65;1.95;;;;;13.20;102213.00;;;;5074408;28;20253;-80
2021/05/28 02:12:21;;;;;;;2.92;1.45;;;;;13.20;102210.00;;;;5081428;28;20302;-80
2021/05/28 02:14:50;;;;;;;2.63;1.67;;;;;13.10;102206.00;;;;5087088;28;20213;-80
2021/05/28 02:17:17;;;;;;;2.45;1.50;;;;;13.10;102199.00;;;;5088497;28;20220;-79
2021/05/28 02:19:44;;;;;;;3.55;1.90;;;;;13.10;102195.00;;;;5088632;28;20195;-80
2021/05/28 02:22:11;;;;;;;2.47;1.67;;;;;13.10;102199.00;;;;5088667;28;20212;-80
2021/05/28 02:24:38;;;;;;;3.22;1.58;;;;;13.10;102200.00;;;;5088660;28;20214;-80
2021/05/28 02:27:05;;;;;;;2.17;1.45;;;;;13.00;102201.00;;;;5089570;28;20204;-80
2021/05/28 02:29:32;;;;;;;3.25;1.90;;;;;13.00;102206.00;;;;5078053;28;20222;-80
2021/05/28 02:31:59;;;;;;;2.05;1.77;;;;;13.00;102205.00;;;;5088953;28;20287;-80
2021/05/28 02:34:26;;;;;;;2.00;1.55;;;;;13.00;102207.00;;;;5088726;28;20252;-80
2021/05/28 02:36:53;;;;;;;2.33;1.48;;;;;13.00;102209.00;;;;5079128;28;20402;-80
2021/05/28 02:39:19;;;;;;;2.08;1.40;;;;;13.00;102219.00;;;;5070527;28;20199;-80
2021/05/28 02:41:46;;;;;;;2.40;1.70;;;;;12.90;102222.00;;;;5068477;28;20241;-81
2021/05/28 02:44:13;;;;;;;2.15;1.60;;;;;12.90;102226.00;;;;5079875;28;20214;-80
2021/05/28 02:46:40;;;;;;;1.95;1.45;;;;;12.90;102232.00;;;;5086275;28;20210;-80
2021/05/28 02:49:08;;;;;;;2.92;1.70;;;;;12.90;102237.00;;;;5071930;28;20590;-80
2021/05/28 02:51:34;;;;;;;1.73;1.50;;;;;12.80;102245.00;;;;5068556;28;20199;-80
2021/05/28 02:54:01;;;;;;;2.67;1.33;;;;;12.80;102238.00;;;;5073063;28;20400;-80
2021/05/28 02:56:28;;;;;;;1.92;1.45;;;;;12.80;102238.00;;;;5087881;28;20287;-80
2021/05/28 02:58:55;;;;;;;2.45;1.50;;;;;12.80;102240.00;;;;5073718;28;20233;-81
2021/05/28 03:01:21;;;;;;;2.90;1.80;;;;;12.80;102247.00;;;;5083143;28;20670;-80
2021/05/28 03:03:48;;;;;;;3.22;1.58;;;;;12.80;102242.00;;;;5075604;28;20756;-80
2021/05/28 03:06:16;;;;;;;2.10;1.50;;;;;12.70;102242.00;;;;5087694;28;20198;-80
2021/05/28 03:08:43;;;;;;;1.45;1.33;;;;;12.70;102249.00;;;;5085858;28;20186;-80
2021/05/28 03:11:09;;;;;;;1.67;1.10;;;;;12.70;102248.00;;;;5068308;28;20584;-80
2021/05/28 03:13:36;;;;;;;2.22;1.40;;;;;12.70;102248.00;;;;5083948;28;20213;-80
2021/05/28 03:16:04;;;;;;;1.60;1.25;;;;;12.70;102252.00;;;;5089394;28;20208;-80
2021/05/28 03:18:36;;;;;;;1.83;1.17;;;;;12.70;102256.00;;;;5093926;28;20209;-80
2021/05/28 03:21:20;;;;;;;3.30;1.75;;;;;12.60;102257.00;;;;5085516;28;20687;-80
2021/05/28 03:23:47;;;;;;;1.92;1.40;;;;;12.60;102259.00;;;;5085888;28;20225;-80
2021/05/28 03:26:14;;;;;;;1.80;1.25;;;;;12.60;102265.00;;;;5094605;28;20231;-80
2021/05/28 03:28:41;;;;;;;1.48;1.05;;;;;12.60;102265.00;;;;5092199;28;20344;-80
2021/05/28 03:31:08;;;;;;;1.80;1.23;;;;;12.60;102267.00;;;;5086356;28;20221;-80
2021/05/28 03:33:35;;;;;;;1.83;1.30;;;;;12.50;102260.00;;;;5094903;28;20198;-80
2021/05/28 03:36:02;;;;;;;2.08;1.15;;;;;12.50;102267.00;;;;5089592;28;20202;-81
2021/05/28 03:38:29;;;;;;;1.58;1.35;;;;;12.50;102272.00;;;;5074630;28;20201;-80
2021/05/28 03:40:57;;;;;;;2.78;1.35;;;;;12.50;102277.00;;;;5094477;28;20202;-80
2021/05/28 03:43:24;;;;;;;2.15;1.60;;;;;12.50;102282.00;;;;5088240;28;20214;-80
2021/05/28 03:45:51;;;;;;;3.40;1.45;;;;;12.50;102278.00;;;;5085023;28;20225;-81
2021/05/28 03:48:17;;;;;;;1.67;1.50;;;;;12.50;102283.00;;;;5081261;28;20199;-80
2021/05/28 03:50:44;;;;;;;2.15;1.73;;;;;12.40;102275.00;;;;5093862;28;20202;-80
2021/05/28 03:53:11;;;;;;;2.03;1.50;;;;;12.40;102280.00;;;;5089766;28;20206;-79
2021/05/28 03:55:38;;;;;;;1.80;1.45;;;;;12.40;102276.00;;;;5074920;28;20229;-80
2021/05/28 03:58:06;;;;;;;3.05;1.77;;;;;12.40;102277.00;;;;5082742;28;20303;-80
2021/05/28 04:00:33;;;;;;;2.15;1.45;;;;;12.40;102279.00;;;;5083255;28;20210;-80
2021/05/28 04:02:59;;;;;;;3.72;1.70;;;;;12.40;102274.00;;;;5092946;28;20194;-80
2021/05/28 04:05:26;;;;;;;1.95;1.70;;;;;12.40;102275.00;;;;5075119;28;20194;-80
2021/05/28 04:07:53;;;;;;;2.65;1.83;;;;;12.40;102274.00;;;;5079103;28;20194;-80
2021/05/28 04:10:20;;;;;;;3.72;2.25;;;;;12.40;102264.00;;;;5092869;28;20566;-81
2021/05/28 04:12:46;;;;;;;2.20;1.65;;;;;12.40;102274.00;;;;5088368;28;20191;-80
2021/05/28 04:15:14;;;;;;;2.67;1.92;;;;;12.40;102282.00;;;;5077031;28;20251;-81
2021/05/28 04:17:41;;;;;;;2.58;1.85;;;;;12.50;102281.00;;;;5092749;28;20575;-80
2021/05/28 04:20:09;;;;;;;1.90;1.40;;;;;12.50;102282.00;;;;5079024;28;20206;-80
2021/05/28 04:22:36;;;;;;;2.35;1.75;;;;;12.50;102283.00;;;;5073139;28;20625;-81
2021/05/28 04:25:04;;;;;;;2.95;2.08;;;;;12.50;102287.00;;;;5078379;28;20218;-80
2021/05/28 04:27:30;;;;;;;2.58;1.90;;;;;12.50;102290.00;;;;5076935;28;20214;-81
2021/05/28 04:29:57;;;;;;;2.60;1.52;;;;;12.60;102284.00;;;;5088385;28;20206;-80
2021/05/28 04:32:24;;;;;;;3.33;2.08;;;;;12.60;102277.00;;;;5089511;28;20221;-80
2021/05/28 04:34:51;;;;;;;2.10;1.52;;;;;12.60;102280.00;;;;5078190;28;20206;-80
2021/05/28 04:37:18;;;;;;;1.83;1.33;;;;;12.60;102284.00;;;;5068992;28;20886;-80
2021/05/28 04:39:45;;;;;;;2.42;1.67;;;;;12.70;102289.00;;;;5078348;28;20202;-80
2021/05/28 04:42:12;;;;;;;1.90;1.40;;;;;12.70;102293.00;;;;5090315;28;20198;-80
2021/05/28 04:44:39;;;;;;;3.10;2.17;;;;;12.70;102298.00;;;;5071441;28;20702;-80
2021/05/28 04:47:06;;;;;;;2.15;1.75;;;;;12.80;102294.00;;;;5090150;28;20199;-80
2021/05/28 04:49:33;;;;;;;2.50;1.77;;;;;12.80;102298.00;;;;5090052;28;20583;-80
2021/05/28 04:52:00;;;;;;;2.65;1.65;;;;;12.90;102302.00;;;;5089386;28;20205;-80
2021/05/28 04:54:27;;;;;;;2.30;1.70;;;;;12.90;102303.00;;;;5080685;28;20683;-80
2021/05/28 04:56:54;;;;;;;5.15;1.75;;;;;13.00;102303.00;;;;5069920;28;20195;-80
2021/05/28 04:59:20;;;;;;;2.90;1.90;;;;;13.00;102300.00;;;;5069199;28;20194;-80
2021/05/28 05:01:47;;;;;;;2.10;1.38;;;;;13.10;102303.00;;;;5073957;28;20552;-79
2021/05/28 05:04:14;;;;;;;2.33;1.42;;;;;13.10;102307.00;;;;5077586;28;20226;-79
2021/05/28 05:06:42;;;;;;;2.42;1.90;;;;;13.20;102304.00;;;;5090263;28;20198;-78
2021/05/28 05:09:08;;;;;;;2.17;1.52;;;;;13.20;102305.00;;;;5084676;28;20222;-79
2021/05/28 05:11:35;;;;;;;3.08;1.80;;;;;13.30;102301.00;;;;5069720;28;20198;-79
2021/05/28 05:14:02;;;;;;;2.08;1.65;;;;;13.40;102306.00;;;;5069330;28;20199;-78
2021/05/28 05:16:29;;;;;;;4.32;2.20;;;;;13.40;102313.00;;;;5069017;28;20206;-78
2021/05/28 05:18:55;;;;;;;2.80;1.67;;;;;13.50;102316.00;;;;5069529;28;20248;-78
2021/05/28 05:21:22;;;;;;;3.42;2.05;;;;;13.60;102316.00;;;;5071530;28;20646;-79
2021/05/28 05:23:50;;;;;;;2.72;2.10;;;;;13.60;102325.00;;;;5079149;28;20219;-79
2021/05/28 05:26:16;;;;;;;3.28;2.00;;;;;13.70;102333.00;;;;5068847;28;20584;-79
2021/05/28 05:28:43;;;;;;;2.28;1.60;;;;;13.80;102331.00;;;;5069394;28;20203;-78
2021/05/28 05:31:10;;;;;;;2.80;1.50;;;;;13.80;102336.00;;;;5076371;28;20218;-78
2021/05/28 05:33:37;;;;;;;1.65;1.42;;;;;13.90;102335.00;;;;5070083;28;20203;-79
2021/05/28 05:36:04;;;;;;;1.42;1.13;;;;;14.00;102335.00;;;;5070404;28;20210;-78
2021/05/28 05:38:31;;;;;;;3.60;1.65;;;;;14.10;102334.00;;;;5067250;28;20238;-79
2021/05/28 05:40:59;;;;;;;2.45;1.85;;;;;14.20;102336.00;;;;5080512;28;20206;-79
2021/05/28 05:43:25;;;;;;;2.67;1.85;;;;;14.30;102344.00;;;;5068451;28;20237;-81
2021/05/28 05:45:52;;;;;;;2.20;1.67;;;;;14.40;102344.00;;;;5086793;28;20198;-80
2021/05/28 05:48:19;;;;;;;2.90;2.10;;;;;14.40;102341.00;;;;5075351;28;20621;-80
2021/05/28 05:50:45;;;;;;;2.17;1.88;;;;;14.50;102344.00;;;;5069415;28;20252;-79
2021/05/28 05:53:12;;;;;;;3.50;2.22;;;;;14.60;102347.00;;;;5069154;28;20719;-80
2021/05/28 05:55:39;;;;;;;3.28;2.28;;;;;14.70;102349.00;;;;5068805;28;20252;-79
2021/05/28 05:58:06;;;;;;;3.85;2.45;;;;;14.80;102348.00;;;;5077585;28;20209;-81
2021/05/28 06:00:34;;;;;;;2.67;2.15;;;;;15.00;102350.00;;;;5070363;28;20203;-79
2021/05/28 06:03:01;;;;;;;6.40;2.75;;;;;15.10;102348.00;;;;5087282;28;20211;-81
2021/05/28 06:05:27;;;;;;;3.60;2.60;;;;;15.20;102347.00;;;;5089293;28;20199;-84
2021/05/28 06:07:54;;;;;;;2.97;2.17;;;;;15.30;102350.00;;;;5067933;28;20199;-85
2021/05/28 06:10:21;;;;;;;6.50;2.78;;;;;15.50;102348.00;;;;5079003;28;20695;-84
2021/05/28 06:12:48;;;;;;;3.30;2.70;;;;;15.60;102344.00;;;;5088907;28;20251;-84
2021/05/28 06:15:15;;;;;;;3.08;2.28;;;;;15.70;102350.00;;;;5088812;28;20206;-85
2021/05/28 06:17:42;;;;;;;4.85;2.20;;;;;15.80;102354.00;;;;5089184;28;20213;-84
2021/05/28 06:20:10;;;;;;;4.25;2.28;;;;;15.90;102352.00;;;;5073731;28;20206;-85
2021/05/28 06:22:37;;;;;;;3.53;2.22;;;;;16.10;102348.00;;;;5068919;28;20218;-85
2021/05/28 06:25:04;;;;;;;4.47;2.42;;;;;16.10;102351.00;;;;5068273;28;20229;-85
2021/05/28 06:27:30;;;;;;;2.85;2.13;;;;;16.30;102354.00;;;;5068454;28;20218;-84
2021/05/28 06:29:58;;;;;;;3.85;2.03;;;;;16.40;102360.00;;;;5068843;28;20307;-85
2021/05/28 06:32:25;;;;;;;3.13;1.95;;;;;16.50;102357.00;;;;5067592;28;20749;-85
2021/05/28 06:34:52;;;;;;;3.55;2.58;;;;;16.60;102362.00;;;;5068583;28;20199;-85
2021/05/28 06:37:18;;;;;;;3.05;2.15;;;;;16.70;102367.00;;;;5067566;28;20633;-85
2021/05/28 06:39:45;;;;;;;4.15;2.25;;;;;16.80;102362.00;;;;5068638;28;20221;-85
2021/05/28 06:42:12;;;;;;;4.32;2.67;;;;;16.90;102362.00;;;;5067767;28;20203;-85
2021/05/28 06:44:39;;;;;;;3.28;2.28;;;;;17.00;102365.00;;;;5068535;28;20279;-85
2021/05/28 06:47:05;;;;;;;3.17;2.17;;;;;17.10;102370.00;;;;5068392;28;20669;-86
2021/05/28 06:49:33;;;;;;;3.88;2.10;;;;;17.20;102371.00;;;;5067574;28;20207;-85
2021/05/28 06:52:00;;;;;;;3.70;2.38;;;;;17.30;102370.00;;;;5067925;28;20199;-85
2021/05/28 06:54:26;;;;;;;3.35;1.63;;;;;17.40;102376.00;;;;5067832;28;20211;-85
2021/05/28 06:56:53;;;;;;;2.92;2.20;;;;;17.50;102384.00;;;;5068490;28;20202;-86
2021/05/28 06:59:20;;;;;;;2.75;1.75;;;;;17.60;102388.00;;;;5083513;28;20194;-84
2021/05/28 07:01:47;;;;;;;3.25;2.05;;;;;17.60;102392.00;;;;5076570;28;20206;-85
2021/05/28 07:04:13;;;;;;;3.13;1.98;;;;;17.70;102390.00;;;;5073236;28;20218;-84
2021/05/28 07:06:41;;;;;;;2.65;1.77;;;;;17.80;102384.00;;;;5068246;28;20199;-83
2021/05/28 07:09:08;;;;;;;2.28;1.55;;;;;17.80;102386.00;;;;5083249;28;20220;-84
2021/05/28 07:11:35;;;;;;;2.83;1.90;;;;;17.90;102382.00;;;;5088522;28;20193;-84
2021/05/28 07:14:01;;;;;;;2.10;1.60;;;;;18.00;102390.00;;;;5088634;28;20194;-83
2021/05/28 07:16:28;;;;;;;4.00;1.98;;;;;18.00;102390.00;;;;5089269;28;20284;-83
2021/05/28 07:18:55;;;;;;;4.57;2.40;;;;;18.10;102395.00;;;;5083175;28;20241;-83
2021/05/28 07:21:24;;;;;;;3.65;2.15;;;;;18.20;102391.00;;;;5087955;28;20198;-82
2021/05/28 07:23:51;;;;;;;4.65;2.50;;;;;18.30;102392.00;;;;5089229;28;20229;-83
2021/05/28 07:26:18;;;;;;;2.72;2.35;;;;;18.40;102398.00;;;;5079685;28;20210;-82
2021/05/28 07:28:45;;;;;;;4.80;2.50;;;;;18.50;102399.00;;;;5071589;28;20194;-83
2021/05/28 07:31:12;;;;;;;2.20;2.00;;;;;18.60;102401.00;;;;5087524;28;20190;-83
2021/05/28 07:33:40;;;;;;;4.45;2.17;;;;;18.70;102408.00;;;;5079063;28;20257;-84
2021/05/28 07:36:08;;;;;;;2.47;2.10;;;;;18.80;102400.00;;;;5068890;28;20408;-83
2021/05/28 07:38:35;;;;;;;2.22;1.95;;;;;18.90;102410.00;;;;5067117;28;20276;-83
2021/05/28 07:41:03;;;;;;;3.25;2.70;;;;;19.00;102405.00;;;;5082975;28;20203;-84
2021/05/28 07:43:30;;;;;;;2.30;1.98;;;;;19.10;102409.00;;;;5067844;28;20233;-82
2021/05/28 07:45:58;;;;;;;3.08;2.47;;;;;19.20;102406.00;;;;5067864;28;20225;-82
2021/05/28 07:48:25;;;;;;;3.80;2.63;;;;;19.30;102415.00;;;;5067808;28;20202;-82
2021/05/28 07:50:58;;;;;;;2.72;2.13;;;;;19.40;102414.00;;;;5068797;28;20572;-82
2021/05/28 07:53:26;;;;;;;3.25;2.35;;;;;19.50;102414.00;;;;5079121;28;20282;-83
2021/05/28 07:55:54;;;;;;;5.80;2.67;;;;;19.60;102418.00;;;;5067613;28;20211;-84
2021/05/28 07:58:22;;;;;;;3.10;2.33;;;;;19.70;102410.00;;;;5069620;28;20233;-83
2021/05/28 08:00:49;;;;;;;2.85;2.42;;;;;19.90;102415.00;;;;5070710;28;20229;-82
2021/05/28 08:03:15;;;;;;;4.10;2.70;;;;;20.00;102413.00;;;;5072588;28;20194;-81
2021/05/28 08:05:43;;;;;;;2.58;2.22;;;;;20.20;102416.00;;;;5077299;28;20194;-82
2021/05/28 08:08:11;;;;;;;4.30;3.08;;;;;20.30;102406.00;;;;5084886;28;20234;-81
2021/05/28 08:10:37;;;;;;;3.38;2.47;;;;;20.40;102404.00;;;;5075531;28;20222;-81
2021/05/28 08:13:04;;;;;;;3.63;2.60;;;;;20.50;102408.00;;;;5073529;28;20241;-81
2021/05/28 08:15:32;;;;;;;4.25;3.00;;;;;20.60;102408.00;;;;5085264;28;20202;-81
2021/05/28 08:17:59;;;;;;;4.00;2.38;;;;;20.80;102407.00;;;;5076556;28;20202;-82
2021/05/28 08:20:26;;;;;;;3.47;2.38;;;;;20.90;102399.00;;;;5077230;28;20565;-83
2021/05/28 08:22:54;;;;;;;2.40;1.88;;;;;21.00;102395.00;;;;5071647;28;20272;-83
2021/05/28 08:25:21;;;;;;;4.32;2.33;;;;;21.10;102409.00;;;;5074553;28;20253;-84
2021/05/28 08:27:48;;;;;;;3.40;2.72;;;;;21.20;102413.00;;;;5087225;28;20187;-83
2021/05/28 08:30:16;;;;;;;3.42;2.40;;;;;21.30;102410.00;;;;5090601;28;20197;-83
2021/05/28 08:32:45;;;;;;;3.33;2.55;;;;;21.40;102409.00;;;;5092231;28;20218;-83
2021/05/28 08:35:13;;;;;;;4.05;2.15;;;;;21.50;102407.00;;;;5093135;28;20195;-83
2021/05/28 08:37:40;;;;;;;2.25;1.90;;;;;21.60;102418.00;;;;5095417;28;20612;-83
2021/05/28 08:40:08;;;;;;;3.25;2.42;;;;;21.70;102419.00;;;;5085728;28;20191;-82
2021/05/28 08:42:35;;;;;;;3.83;2.55;;;;;21.80;102413.00;;;;5079700;28;20256;-84
2021/05/28 08:45:03;;;;;;;2.55;2.13;;;;;22.00;102414.00;;;;5089184;28;20229;-83
2021/05/28 08:47:29;;;;;;;1.80;1.70;;;;;22.10;102410.00;;;;5090398;28;20505;-83
2021/05/28 08:49:57;;;;;;;1.33;1.20;;;;;22.20;102408.00;;;;5089974;28;20191;-84
2021/05/28 08:52:25;;;;;;;4.00;1.65;;;;;22.30;102408.00;;;;5090866;28;20205;-84
2021/05/28 08:54:51;;;;;;;2.35;2.15;;;;;22.40;102398.00;;;;5091818;28;20206;-84
2021/05/28 08:57:19;;;;;;;2.50;1.60;;;;;22.50;102404.00;;;;5096046;28;20198;-82
2021/05/28 08:59:46;;;;;;;2.38;1.80;;;;;22.60;102405.00;;;;5092245;28;20207;-82
2021/05/28 09:02:33;;;;;;;3.13;2.20;;;;;22.60;102408.00;;;;5080589;28;20210;-81
2021/05/28 09:05:09;;;;;;;1.75;1.38;;;;;22.70;102406.00;;;;5080085;28;20231;-81
2021/05/28 09:07:37;;;;;;;2.45;2.10;;;;;22.80;102407.00;;;;5080141;28;20230;-80
2021/05/28 09:10:32;;;;;;;3.45;2.20;;;;;22.80;102412.00;;;;5083529;28;20226;-80
2021/05/28 09:13:14;;;;;;;2.15;1.95;;;;;22.90;102407.00;;;;5084212;28;20581;-81
2021/05/28 09:15:43;;;;;;;6.32;3.45;;;;;23.10;102408.00;;;;5080863;28;20442;-83
2021/05/28 09:18:10;;;;;;;4.53;2.40;;;;;23.30;102406.00;;;;5090996;28;20202;-83
2021/05/28 09:20:39;;;;;;;3.63;2.30;;;;;23.40;102413.00;;;;5085735;28;20226;-83
2021/05/28 09:23:17;;;;;;;2.22;2.00;;;;;23.40;102405.00;;;;5090993;28;20198;-82
2021/05/28 09:25:58;;;;;;;2.70;2.40;;;;;23.40;102408.00;;;;5073101;28;20256;-82
2021/05/28 09:28:25;;;;;;;3.67;2.55;;;;;23.60;102400.00;;;;5072388;28;20637;-82
2021/05/28 09:31:00;;;;;;;4.75;2.42;;;;;23.60;102408.00;;;;5078245;28;20195;-81
2021/05/28 09:33:31;;;;;;;4.32;2.08;;;;;23.70;102416.00;;;;5080303;28;20243;-82
2021/05/28 09:36:11;;;;;;;3.40;2.45;;;;;23.60;102398.00;;;;5085663;28;20201;-85
2021/05/28 09:38:39;;;;;;;3.42;1.83;;;;;23.80;102402.00;;;;5077667;28;20264;-83
2021/05/28 09:41:06;;;;;;;2.80;2.17;;;;;23.90;102403.00;;;;5084172;28;20195;-84
2021/05/28 09:43:34;;;;;;;2.33;2.13;;;;;23.90;102397.00;;;;5072138;28;20203;-85
2021/05/28 09:46:00;;;;;;;2.40;2.20;;;;;23.90;102394.00;;;;5075414;28;20199;-83
2021/05/28 09:48:33;;;;;;;2.22;2.03;;;;;23.90;102394.00;;;;5071714;28;20519;-83
2021/05/28 09:51:04;;;;;;;2.75;2.10;;;;;24.00;102396.00;;;;5079416;28;20195;-81
2021/05/28 09:53:36;;;;;;;2.13;1.92;;;;;24.00;102392.00;;;;5091582;28;20206;-83
2021/05/28 09:56:22;;;;;;;2.35;2.03;;;;;23.90;102396.00;;;;5079225;28;20282;-83
2021/05/28 09:58:56;;;;;;;1.88;1.67;;;;;23.90;102387.00;;;;5071037;28;20199;-83
2021/05/28 10:01:23;;;;;;;2.58;1.83;;;;;24.00;102388.00;;;;5071009;28;20199;-86
2021/05/28 10:04:00;;;;;;;1.95;1.70;;;;;23.90;102388.00;;;;5075767;28;20272;-83
2021/05/28 10:06:28;;;;;;;2.35;1.92;;;;;24.00;102382.00;;;;5076284;28;20297;-84
2021/05/28 10:08:58;;;;;;;2.20;1.50;;;;;24.10;102386.00;;;;5078762;28;20689;-83
2021/05/28 10:11:26;;;;;;;2.45;2.03;;;;;24.20;102387.00;;;;5069249;28;20278;-83
2021/05/28 10:13:54;;;;;;;2.33;1.80;;;;;24.20;102374.00;;;;5070670;28;20198;-84
2021/05/28 10:16:22;;;;;;;2.25;2.00;;;;;24.30;102385.00;;;;5074141;28;20215;-84
2021/05/28 10:18:50;;;;;;;1.48;1.23;;;;;24.40;102383.00;;;;5079906;28;20217;-84
2021/05/28 10:21:17;;;;;;;1.90;1.70;;;;;24.50;102378.00;;;;5069858;28;20214;-83
2021/05/28 10:23:44;;;;;;;2.20;1.60;;;;;24.60;102373.00;;;;5068310;28;20241;-83
2021/05/28 10:26:14;;;;;;;1.80;1.70;;;;;24.70;102381.00;;;;5070290;28;20199;-84
2021/05/28 10:28:44;;;;;;;1.95;1.50;;;;;24.80;102373.00;;;;5073728;28;20203;-81
2021/05/28 10:31:12;;;;;;;2.63;1.60;;;;;24.90;102374.00;;;;5083528;28;20691;-84
2021/05/28 10:33:48;;;;;;;1.65;1.30;;;;;24.90;102381.00;;;;5083614;28;20730;-84
2021/05/28 10:36:42;;;;;;;1.73;1.42;;;;;24.90;102370.00;;;;5070601;28;20712;-82
2021/05/28 10:39:10;;;;;;;2.70;1.88;;;;;25.00;102367.00;;;;5069660;28;20199;-82
2021/05/28 10:41:45;;;;;;;3.55;1.83;;;;;25.00;102369.00;;;;5091723;28;20198;-84
2021/05/28 10:44:38;;;;;;;1.40;1.23;;;;;25.00;102365.00;;;;5090273;28;20312;-84
2021/05/28 10:47:24;;;;;;;1.95;1.75;;;;;25.10;102360.00;;;;5089185;28;20199;-82
2021/05/28 10:49:52;;;;;;;1.50;1.40;;;;;25.20;102355.00;;;;5090246;28;20574;-82
2021/05/28 10:52:31;;;;;;;2.22;1.73;;;;;25.20;102358.00;;;;5089350;28;20202;-83
2021/05/28 10:55:01;;;;;;;2.20;1.65;;;;;25.30;102353.00;;;;5087437;28;20253;-83
2021/05/28 10:57:44;;;;;;;2.58;1.60;;;;;25.40;102354.00;;;;5089273;28;20220;-82
2021/05/28 11:00:20;;;;;;;2.20;1.67;;;;;25.40;102351.00;;;;5070360;28;20225;-82
2021/05/28 11:02:54;;;;;;;2.50;2.30;;;;;25.50;102356.00;;;;5071629;28;20284;-81
2021/05/28 11:05:44;;;;;;;4.82;2.30;;;;;25.40;102353.00;;;;5069829;28;20230;-83
2021/05/28 11:08:48;;;;;;;1.75;1.65;;;;;25.40;102349.00;;;;5068847;28;20205;-82
2021/05/28 11:11:55;;;;;;;1.95;1.75;;;;;25.50;102355.00;;;;5071697;28;20202;-82
2021/05/28 11:14:22;;;;;;;2.25;1.85;;;;;25.70;102346.00;;;;5070034;28;20286;-83
2021/05/28 11:17:17;;;;;;;1.80;1.65;;;;;25.60;102348.00;;;;5069424;28;20203;-84
2021/05/28 11:19:55;;;;;;;2.28;1.42;;;;;25.70;102350.00;;;;5071335;28;20209;-82
2021/05/28 11:22:35;;;;;;;2.92;1.50;;;;;25.70;102351.00;;;;5069699;28;20198;-83
2021/05/28 11:25:06;;;;;;;14.35;2.17;;;;;25.70;102349.00;;;;5069758;28;20232;-83
2021/05/28 11:27:51;;;;;;;1.60;1.50;;;;;25.70;102349.00;;;;5069266;28;20207;-82
2021/05/28 11:30:37;;;;;;;1.60;1.50;;;;;25.70;102346.00;;;;5069503;28;20206;-83
2021/05/28 11:33:04;;;;;;;2.65;2.10;;;;;25.80;102351.00;;;;5060620;28;20227;-83
2021/05/28 11:35:38;;;;;;;2.63;2.30;;;;;25.70;102350.00;;;;5068955;28;20213;-83
2021/05/28 11:38:06;;;;;;;2.35;1.83;;;;;25.70;102347.00;;;;5072328;28;20270;-82
2021/05/28 11:40:41;;;;;;;2.30;1.83;;;;;25.60;102345.00;;;;5079659;28;20283;-82
2021/05/28 11:43:09;;;;;;;3.75;2.10;;;;;25.60;102336.00;;;;5077447;28;20198;-82
2021/05/28 11:45:38;;;;;;;2.00;1.67;;;;;25.60;102342.00;;;;5079004;28;20215;-83
2021/05/28 11:48:11;;;;;;;2.30;2.10;;;;;25.50;102341.00;;;;5074868;28;20199;-82
2021/05/28 11:50:41;;;;;;;2.72;2.05;;;;;25.60;102339.00;;;;5088267;28;20206;-83
2021/05/28 11:53:09;;;;;;;3.47;2.55;;;;;25.60;102338.00;;;;5087201;28;20221;-83
2021/05/28 11:55:45;;;;;;;4.13;2.60;;;;;25.50;102337.00;;;;5074406;28;20205;-82
2021/05/28 11:58:13;;;;;;;2.47;2.28;;;;;25.60;102336.00;;;;5076183;28;20673;-80
2021/05/28 12:00:40;;;;;;;3.20;2.33;;;;;25.60;102334.00;;;;5096187;28;20248;-81
2021/05/28 12:03:08;;;;;;;2.72;2.38;;;;;25.60;102344.00;;;;5094844;28;20304;-80
2021/05/28 12:05:36;;;;;;;2.80;2.53;;;;;25.70;102337.00;;;;5096738;28;20312;-80
2021/05/28 12:08:20;;;;;;;2.38;2.08;;;;;25.60;102332.00;;;;5094027;28;20289;-80
2021/05/28 12:10:50;;;;;;;2.33;2.05;;;;;25.80;102333.00;;;;5093697;28;20765;-81
2021/05/28 12:13:18;;;;;;;2.95;2.28;;;;;25.80;102332.00;;;;5094630;28;20648;-82
2021/05/28 12:15:47;;;;;;;2.38;2.17;;;;;25.90;102332.00;;;;5092121;28;20208;-80
2021/05/28 12:18:16;;;;;;;3.28;2.30;;;;;25.90;102342.00;;;;5087881;28;20207;-82